Time;durP1;ratioP1;P1;durP2;ratioP2;P2;SDS_P1;SDS_P2;PMS_P1;PMS_P2;Temp;Humidity;BMP_temperature;BMP_pressure;BME280_temperature;BME280_humidity;BME280_pressure;Samples;Min_cycle;Max_cycle;Signal;HPM_P1;HPM_P2
2022/08/11 00:00:00;;;;;;;0.40;0.40;;;18.00;99.90;;;;;;5006707;28;20159;-80
2022/08/11 00:02:36;;;;;;;0.30;0.30;;;18.00;99.90;;;;;;5002309;28;20958;-80
2022/08/11 00:05:15;;;;;;;0.40;0.40;;;17.80;99.90;;;;;;5006466;28;20060;-80
2022/08/11 00:07:50;;;;;;;0.40;0.40;;;17.70;99.90;;;;;;5015324;28;20059;-80
2022/08/11 00:10:25;;;;;;;0.30;0.30;;;17.70;99.90;;;;;;5007528;28;20371;-80
2022/08/11 00:13:01;;;;;;;0.40;0.40;;;17.60;99.90;;;;;;5004523;28;20053;-80
2022/08/11 00:15:56;;;;;;;0.30;0.30;;;17.60;99.90;;;;;;5007520;28;20079;-80
2022/08/11 00:18:22;;;;;;;0.30;0.30;;;17.50;99.90;;;;;;5004753;28;20041;-80
2022/08/11 00:20:49;;;;;;;0.30;0.30;;;17.60;99.90;;;;;;4989822;28;20122;-80
2022/08/11 00:23:18;;;;;;;0.30;0.30;;;17.60;99.90;;;;;;5003275;28;20126;-80
2022/08/11 00:25:50;;;;;;;0.30;0.30;;;17.50;99.90;;;;;;5001011;28;20123;-80
2022/08/11 00:28:25;;;;;;;0.30;0.30;;;17.50;99.90;;;;;;4999674;28;20061;-79
2022/08/11 00:30:52;;;;;;;0.30;0.30;;;17.40;99.90;;;;;;5002220;28;20045;-79
2022/08/11 00:33:22;;;;;;;0.30;0.30;;;17.40;99.90;;;;;;5001395;28;20048;-79
2022/08/11 00:35:50;;;;;;;0.30;0.30;;;17.40;99.90;;;;;;5000544;28;20056;-79
2022/08/11 00:38:22;;;;;;;0.30;0.30;;;17.40;99.90;;;;;;5008263;28;20096;-79
2022/08/11 00:41:01;;;;;;;0.30;0.30;;;17.30;99.90;;;;;;4999478;28;20064;-80
2022/08/11 00:43:50;;;;;;;0.30;0.30;;;17.30;99.90;;;;;;5006669;28;20541;-79
2022/08/11 00:46:15;;;;;;;0.30;0.30;;;17.20;99.90;;;;;;5007680;28;20040;-79
2022/08/11 00:48:47;;;;;;;0.30;0.30;;;17.20;99.90;;;;;;5004798;28;20095;-79
2022/08/11 00:51:45;;;;;;;0.35;0.35;;;17.20;99.90;;;;;;5006218;28;20097;-80
2022/08/11 00:54:35;;;;;;;0.30;0.30;;;17.20;99.90;;;;;;4994009;28;20136;-80
2022/08/11 00:57:34;;;;;;;0.30;0.30;;;17.10;99.90;;;;;;4992054;28;20371;-80
2022/08/11 01:00:16;;;;;;;0.30;0.30;;;17.00;99.90;;;;;;4991937;28;20370;-79
2022/08/11 01:02:58;;;;;;;0.30;0.30;;;17.10;99.90;;;;;;4994406;28;20509;-79
2022/08/11 01:05:59;;;;;;;0.30;0.30;;;17.00;99.90;;;;;;4992016;28;20613;-79
2022/08/11 01:08:48;;;;;;;0.35;0.35;;;17.00;99.90;;;;;;4913537;29;20055;-79
2022/08/11 01:11:28;;;;;;;0.40;0.40;;;17.00;99.90;;;;;;4973389;28;20619;-79
2022/08/11 01:14:24;;;;;;;0.30;0.30;;;17.00;99.90;;;;;;4994656;28;20049;-79
2022/08/11 01:17:28;;;;;;;0.30;0.30;;;17.00;99.90;;;;;;5008538;28;20516;-79
2022/08/11 01:20:27;;;;;;;0.30;0.30;;;16.90;99.90;;;;;;4995793;28;20048;-79
2022/08/11 01:23:26;;;;;;;0.30;0.30;;;16.90;99.90;;;;;;4993771;28;20044;-79
2022/08/11 01:26:36;;;;;;;0.30;0.30;;;16.90;99.90;;;;;;4993618;28;20052;-79
2022/08/11 01:29:02;;;;;;;0.30;0.30;;;16.80;99.90;;;;;;4974873;28;20521;-79
2022/08/11 01:32:01;;;;;;;0.30;0.30;;;16.80;99.90;;;;;;4993102;28;20041;-79
2022/08/11 01:34:26;;;;;;;0.30;0.30;;;16.70;99.90;;;;;;4989970;28;20764;-79
2022/08/11 01:37:14;;;;;;;0.30;0.30;;;16.70;99.90;;;;;;4988692;28;20045;-79
2022/08/11 01:39:58;;;;;;;0.32;0.32;;;16.60;99.90;;;;;;4990687;28;20084;-79
2022/08/11 01:46:09;;;;;;;0.30;0.30;;;16.50;99.90;;;;;;4990543;28;20089;-79
2022/08/11 01:49:11;;;;;;;0.30;0.30;;;16.40;99.90;;;;;;4990879;28;20403;-79
2022/08/11 01:52:04;;;;;;;0.30;0.30;;;16.40;99.90;;;;;;4994404;28;20046;-79
2022/08/11 01:54:32;;;;;;;0.30;0.30;;;16.40;99.90;;;;;;4994540;28;20546;-78
2022/08/11 01:57:30;;;;;;;0.30;0.30;;;16.40;99.90;;;;;;5004831;28;20124;-80
2022/08/11 02:00:07;;;;;;;0.40;0.40;;;16.40;99.90;;;;;;5006163;28;20045;-79
2022/08/11 02:03:11;;;;;;;0.30;0.30;;;16.30;99.90;;;;;;5005437;28;20045;-79
2022/08/11 02:06:53;;;;;;;0.30;0.30;;;16.30;99.90;;;;;;5006984;28;20091;-79
2022/08/11 02:09:03;;;;;;;0.40;0.40;;;16.30;99.90;;;;;;5008871;28;20053;-80
2022/08/11 02:11:32;;;;;;;0.40;0.40;;;16.30;99.90;;;;;;5007038;28;20415;-79
2022/08/11 02:14:05;;;;;;;0.32;0.32;;;16.20;99.90;;;;;;5009337;28;20163;-79
2022/08/11 02:16:59;;;;;;;0.30;0.30;;;16.20;99.90;;;;;;5008835;28;20049;-79
2022/08/11 02:26:01;;;;;;;0.30;0.30;;;16.10;99.90;;;;;;5006037;28;20057;-80
2022/08/11 02:28:36;;;;;;;0.30;0.30;;;16.10;99.90;;;;;;5003736;28;20053;-79
2022/08/11 02:34:38;;;;;;;0.30;0.30;;;16.10;99.90;;;;;;5005923;28;20127;-80
2022/08/11 02:37:23;;;;;;;0.38;0.38;;;16.10;99.90;;;;;;5006507;28;20049;-79
2022/08/11 02:40:19;;;;;;;0.40;0.40;;;16.10;99.90;;;;;;5004865;28;20049;-79
2022/08/11 02:42:45;;;;;;;0.30;0.30;;;16.00;99.90;;;;;;5006141;28;20045;-79
2022/08/11 02:45:11;;;;;;;0.30;0.30;;;16.00;99.90;;;;;;5005229;28;20111;-79
2022/08/11 02:50:59;;;;;;;0.30;0.30;;;15.90;99.90;;;;;;5012991;28;20056;-79
2022/08/11 02:53:44;;;;;;;0.40;0.40;;;15.90;99.90;;;;;;5023105;28;20072;-79
2022/08/11 02:56:29;;;;;;;0.40;0.40;;;15.80;99.90;;;;;;5018601;28;20045;-79
2022/08/11 03:02:30;;;;;;;0.40;0.40;;;15.80;99.90;;;;;;5022965;28;20063;-79
2022/08/11 03:05:12;;;;;;;0.40;0.40;;;15.80;99.90;;;;;;5023673;28;20095;-79
2022/08/11 03:08:12;;;;;;;0.40;0.40;;;15.80;99.90;;;;;;5018082;28;20116;-79
2022/08/11 03:17:16;;;;;;;0.30;0.30;;;15.80;99.90;;;;;;5024214;28;20114;-79
2022/08/11 03:20:13;;;;;;;0.40;0.40;;;15.80;99.90;;;;;;5020419;28;20599;-79
2022/08/11 03:23:08;;;;;;;0.40;0.40;;;15.80;99.90;;;;;;5024236;28;20250;-79
2022/08/11 03:25:48;;;;;;;0.60;0.55;;;15.80;99.90;;;;;;5024528;28;20403;-79
2022/08/11 03:28:34;;;;;;;0.40;0.40;;;15.70;99.90;;;;;;5026845;28;20049;-79
2022/08/11 03:31:18;;;;;;;0.40;0.40;;;15.70;99.90;;;;;;5027041;28;20689;-79
2022/08/11 03:34:02;;;;;;;0.40;0.40;;;15.70;99.90;;;;;;5022833;28;20080;-79
2022/08/11 03:36:34;;;;;;;;;;;15.60;99.90;;;;;;5024887;28;20057;-79
2022/08/11 03:39:04;;;;;;;0.40;0.40;;;15.70;99.90;;;;;;5024259;28;19931;-79
2022/08/11 03:41:56;;;;;;;0.40;0.40;;;15.60;99.90;;;;;;5026518;28;20049;-79
2022/08/11 03:44:59;;;;;;;0.30;0.30;;;15.50;99.90;;;;;;5024794;28;20120;-79
2022/08/11 03:47:30;;;;;;;0.40;0.40;;;15.60;99.90;;;;;;5025578;28;20059;-79
2022/08/11 03:50:25;;;;;;;0.30;0.30;;;15.60;99.90;;;;;;5020645;28;20061;-79
2022/08/11 03:53:17;;;;;;;0.40;0.40;;;15.60;99.90;;;;;;5006838;28;20456;-79
2022/08/11 03:56:18;;;;;;;0.30;0.30;;;15.60;99.90;;;;;;5046008;28;20040;-79
2022/08/11 03:59:02;;;;;;;0.30;0.30;;;15.50;99.90;;;;;;5025983;28;20089;-79
2022/08/11 04:01:34;;;;;;;0.40;0.40;;;15.50;99.90;;;;;;5041999;28;20151;-79
2022/08/11 04:04:37;;;;;;;0.40;0.40;;;15.50;99.90;;;;;;5042499;28;21008;-79
2022/08/11 04:07:02;;;;;;;0.40;0.40;;;15.50;99.90;;;;;;5043002;28;20056;-79
2022/08/11 04:09:45;;;;;;;0.30;0.30;;;15.40;99.90;;;;;;5041723;28;20095;-79
2022/08/11 04:12:26;;;;;;;0.40;0.40;;;15.40;99.90;;;;;;5043997;28;20110;-79
2022/08/11 04:18:40;;;;;;;0.40;0.40;;;15.30;99.90;;;;;;5043452;28;20052;-79
2022/08/11 04:21:25;;;;;;;0.30;0.30;;;15.30;99.90;;;;;;5023482;28;20052;-79
2022/08/11 04:24:24;;;;;;;0.40;0.40;;;15.20;99.90;;;;;;5041492;28;20755;-79
2022/08/11 04:27:26;;;;;;;0.40;0.40;;;15.20;99.90;;;;;;5045174;28;20605;-79
2022/08/11 04:30:04;;;;;;;0.40;0.40;;;15.20;99.90;;;;;;5045419;28;20076;-79
2022/08/11 04:32:51;;;;;;;0.30;0.30;;;15.20;99.90;;;;;;5043841;28;20052;-79
2022/08/11 04:35:48;;;;;;;0.40;0.40;;;15.20;99.90;;;;;;5045386;28;20117;-79
2022/08/11 04:38:45;;;;;;;0.40;0.40;;;15.20;99.90;;;;;;5043520;28;20052;-79
2022/08/11 04:41:32;;;;;;;0.40;0.40;;;15.20;99.90;;;;;;5045091;28;20239;-79
2022/08/11 04:44:19;;;;;;;0.35;0.35;;;15.20;99.90;;;;;;5046639;28;20094;-79
2022/08/11 04:47:05;;;;;;;0.38;0.38;;;15.20;99.90;;;;;;5025714;28;20052;-79
2022/08/11 05:02:00;;;;;;;0.40;0.40;;;15.60;99.90;;;;;;5041468;28;20181;-77
2022/08/11 05:07:30;;;;;;;;;;;15.90;99.90;;;;;;5027166;28;20145;-79
2022/08/11 05:10:21;;;;;;;0.40;0.40;;;16.20;99.90;;;;;;5043084;28;20042;-79
2022/08/11 05:27:09;;;;;;;0.30;0.30;;;18.10;99.90;;;;;;5044038;28;20048;-79
2022/08/11 05:37:04;;;;;;;0.30;0.30;;;24.30;99.90;;;;;;5040293;28;20048;-80
2022/08/11 05:56:49;;;;;;;0.30;0.30;;;22.00;99.90;;;;;;5040792;28;20048;-79
2022/08/11 05:59:17;;;;;;;0.40;0.40;;;21.60;99.90;;;;;;5024014;28;20139;-79
2022/08/11 06:01:44;;;;;;;0.30;0.30;;;21.10;99.90;;;;;;5042101;28;20061;-79
2022/08/11 06:04:19;;;;;;;0.30;0.30;;;21.30;99.90;;;;;;5041772;28;20062;-78
2022/08/11 06:06:49;;;;;;;0.30;0.30;;;21.70;99.90;;;;;;5041995;28;20048;-79
2022/08/11 06:09:22;;;;;;;0.30;0.30;;;22.00;99.90;;;;;;5041591;28;20070;-79
2022/08/11 06:11:49;;;;;;;0.30;0.30;;;21.90;99.90;;;;;;5043730;28;20133;-79
2022/08/11 06:14:15;;;;;;;0.30;0.30;;;21.90;99.90;;;;;;5023911;28;20052;-79
2022/08/11 06:16:44;;;;;;;0.30;0.30;;;21.90;99.90;;;;;;5038107;28;21207;-79
2022/08/11 06:19:11;;;;;;;0.30;0.30;;;22.20;99.90;;;;;;5038358;28;20191;-79
2022/08/11 06:21:42;;;;;;;0.30;0.30;;;21.80;99.90;;;;;;5040182;28;20420;-80
2022/08/11 06:24:13;;;;;;;0.47;0.40;;;22.20;99.90;;;;;;5043391;28;20044;-79
2022/08/11 06:26:48;;;;;;;0.30;0.30;;;22.00;99.90;;;;;;5040658;28;20758;-79
2022/08/11 06:29:17;;;;;;;0.30;0.30;;;22.00;99.90;;;;;;5025704;28;20572;-80
2022/08/11 06:31:58;;;;;;;0.30;0.30;;;22.30;99.90;;;;;;5008268;28;20044;-80
2022/08/11 06:35:06;;;;;;;0.30;0.30;;;22.70;99.90;;;;;;5042205;28;20048;-80
2022/08/11 06:37:44;;;;;;;0.30;0.30;;;22.70;99.90;;;;;;5041647;28;20057;-79
2022/08/11 06:40:28;;;;;;;0.30;0.30;;;22.80;99.90;;;;;;5040119;28;20092;-80
2022/08/11 06:43:04;;;;;;;0.30;0.30;;;21.90;99.90;;;;;;5041703;28;20749;-80
2022/08/11 06:45:39;;;;;;;0.30;0.30;;;22.00;99.90;;;;;;5024789;28;20109;-79
2022/08/11 06:48:14;;;;;;;0.30;0.30;;;22.60;99.90;;;;;;5039781;28;20074;-80
2022/08/11 06:53:25;;;;;;;0.30;0.30;;;22.40;99.90;;;;;;5041398;28;20229;-80
2022/08/11 07:02:25;;;;;;;0.30;0.30;;;23.40;99.90;;;;;;5025597;28;20044;-80
2022/08/11 07:04:59;;;;;;;0.30;0.30;;;23.10;99.90;;;;;;4981106;28;20119;-81
2022/08/11 07:16:29;;;;;;;0.40;0.40;;;22.60;99.90;;;;;;5027115;28;20052;-81
2022/08/11 07:30:57;;;;;;;0.30;0.30;;;23.80;99.90;;;;;;5023498;28;20068;-80
2022/08/11 07:33:29;;;;;;;0.30;0.30;;;23.80;99.90;;;;;;5023180;28;20083;-80
2022/08/11 07:35:58;;;;;;;0.30;0.30;;;24.40;99.90;;;;;;5044821;28;20746;-81
2022/08/11 07:38:49;;;;;;;0.30;0.30;;;24.10;99.90;;;;;;5041669;28;20079;-81
2022/08/11 07:41:21;;;;;;;0.30;0.30;;;24.50;99.90;;;;;;5035983;28;20052;-81
2022/08/11 07:43:53;;;;;;;0.30;0.30;;;24.40;99.90;;;;;;5009226;28;20052;-81
2022/08/11 07:54:40;;;;;;;0.30;0.30;;;25.00;99.90;;;;;;5033686;28;20040;-80
2022/08/11 08:19:17;;;;;;;0.30;0.30;;;25.60;99.90;;;;;;5039838;28;20053;-81
2022/08/11 08:21:44;;;;;;;0.30;0.30;;;26.30;99.90;;;;;;5039808;28;20041;-82
2022/08/11 08:24:11;;;;;;;0.30;0.30;;;26.00;99.90;;;;;;5020611;28;20263;-82
2022/08/11 08:32:09;;;;;;;0.30;0.30;;;26.70;99.90;;;;;;5022811;28;20072;-82
2022/08/11 08:34:37;;;;;;;0.20;0.20;;;27.00;99.90;;;;;;5036920;28;20191;-82
2022/08/11 08:37:04;;;;;;;0.30;0.30;;;27.30;99.90;;;;;;5041996;28;20048;-81
2022/08/11 08:39:36;;;;;;;0.30;0.30;;;26.70;99.90;;;;;;5037724;28;20061;-82
2022/08/11 08:42:10;;;;;;;0.28;0.28;;;26.80;99.90;;;;;;5035021;28;20048;-81
2022/08/11 08:44:40;;;;;;;0.30;0.30;;;26.90;99.90;;;;;;5037042;28;20119;-81
2022/08/11 08:47:09;;;;;;;0.30;0.30;;;27.10;99.90;;;;;;5040923;28;20045;-81
2022/08/11 08:49:40;;;;;;;0.30;0.30;;;26.90;99.90;;;;;;5035931;28;20160;-82
2022/08/11 08:52:11;;;;;;;0.30;0.30;;;27.70;99.90;;;;;;5039723;28;20460;-82
2022/08/11 08:54:41;;;;;;;0.30;0.30;;;27.60;99.90;;;;;;5026011;28;20449;-81
2022/08/11 08:57:08;;;;;;;0.30;0.30;;;28.20;99.90;;;;;;5043323;28;20040;-81
2022/08/11 08:59:41;;;;;;;0.30;0.30;;;27.60;99.90;;;;;;5043454;28;20059;-82
2022/08/11 09:02:11;;;;;;;0.20;0.20;;;27.70;99.90;;;;;;5025413;28;20516;-82
2022/08/11 09:04:39;;;;;;;0.30;0.30;;;28.10;99.90;;;;;;5045131;28;20460;-81
2022/08/11 09:07:14;;;;;;;0.30;0.30;;;28.10;99.90;;;;;;5048363;28;20048;-82
2022/08/11 09:09:58;;;;;;;0.20;0.20;;;28.50;98.80;;;;;;5040721;28;20055;-80
2022/08/11 09:12:30;;;;;;;0.30;0.30;;;28.30;99.90;;;;;;5045224;28;20049;-82
2022/08/11 09:14:59;;;;;;;0.20;0.20;;;28.60;98.50;;;;;;5028874;28;20113;-82
2022/08/11 09:17:27;;;;;;;0.30;0.30;;;28.40;99.10;;;;;;5027650;28;20131;-81
2022/08/11 09:19:59;;;;;;;0.30;0.30;;;29.10;98.50;;;;;;5040497;28;22116;-81
2022/08/11 09:28:09;;;;;;;0.30;0.30;;;28.70;92.70;;;;;;5041959;28;20041;-83
2022/08/11 09:30:35;;;;;;;0.30;0.30;;;28.60;92.30;;;;;;5042203;28;20086;-82
2022/08/11 09:33:04;;;;;;;0.30;0.30;;;29.30;93.30;;;;;;5044143;28;20048;-80
2022/08/11 09:35:35;;;;;;;0.20;0.20;;;29.40;92.90;;;;;;5010934;28;20067;-81
2022/08/11 09:40:49;;;;;;;0.30;0.30;;;28.70;90.00;;;;;;5041513;28;20055;-81
2022/08/11 09:46:03;;;;;;;0.30;0.30;;;29.20;90.50;;;;;;5044565;28;20063;-80
2022/08/11 09:48:35;;;;;;;0.30;0.30;;;29.40;90.00;;;;;;5044470;28;20235;-82
2022/08/11 09:51:03;;;;;;;0.30;0.30;;;29.40;89.00;;;;;;5043933;28;20033;-82
2022/08/11 09:53:33;;;;;;;0.30;0.30;;;29.00;87.90;;;;;;5041656;28;20060;-81
2022/08/11 09:58:12;;;;;;;0.22;0.22;;;29.50;90.90;;;;;;5042536;28;20040;-82
2022/08/11 09:58:47;;;;;;;0.20;0.20;;;29.80;88.60;;;;;;5045608;28;20502;-82
2022/08/11 10:01:25;;;;;;;0.20;0.20;;;29.50;87.00;;;;;;5043914;28;20051;-81
2022/08/11 10:04:16;;;;;;;0.30;0.30;;;29.60;87.90;;;;;;5010016;28;20101;-82
2022/08/11 10:07:02;;;;;;;0.20;0.20;;;30.00;89.10;;;;;;5027082;28;20044;-82
2022/08/11 10:09:55;;;;;;;0.20;0.20;;;29.10;85.50;;;;;;5041935;28;20616;-82
2022/08/11 10:12:32;;;;;;;0.28;0.28;;;29.90;85.20;;;;;;5025341;28;20053;-82
2022/08/11 10:20:38;;;;;;;0.30;0.30;;;29.40;83.00;;;;;;5021841;28;20048;-81
2022/08/11 10:28:35;;;;;;;0.30;0.30;;;29.80;82.50;;;;;;5041041;28;20508;-81
2022/08/11 10:33:58;;;;;;;0.30;0.30;;;29.90;83.20;;;;;;5042560;28;20060;-83
2022/08/11 10:36:27;;;;;;;0.30;0.30;;;29.40;81.00;;;;;;5043728;28;20099;-84
2022/08/11 10:38:53;;;;;;;0.30;0.30;;;29.60;81.70;;;;;;5042172;28;20136;-84
2022/08/11 10:44:06;;;;;;;0.30;0.30;;;30.30;81.20;;;;;;5041698;28;20599;-81
2022/08/11 10:49:19;;;;;;;0.20;0.20;;;29.70;78.40;;;;;;5042799;28;20146;-83
2022/08/11 11:00:05;;;;;;;0.20;0.20;;;30.20;78.60;;;;;;5040541;28;20920;-83
2022/08/11 11:02:33;;;;;;;0.30;0.30;;;30.40;80.00;;;;;;5008036;28;20045;-84
2022/08/11 11:05:11;;;;;;;0.30;0.30;;;31.00;81.80;;;;;;5000670;28;20048;-82
2022/08/11 11:07:46;;;;;;;0.20;0.20;;;31.50;81.10;;;;;;5039672;28;20667;-80
2022/08/11 11:10:12;;;;;;;0.20;0.20;;;31.50;80.80;;;;;;5044453;28;20044;-82
2022/08/11 11:18:27;;;;;;;0.30;0.30;;;31.60;76.50;;;;;;5022886;28;20064;-81
2022/08/11 11:21:04;;;;;;;0.20;0.20;;;31.40;78.20;;;;;;5020955;28;20054;-81
2022/08/11 11:24:05;;;;;;;0.25;0.25;;;31.20;77.20;;;;;;5038543;28;20078;-82
2022/08/11 11:26:58;;;;;;;0.20;0.20;;;31.10;74.50;;;;;;5037099;28;20076;-83
2022/08/11 11:29:30;;;;;;;0.20;0.20;;;31.00;75.00;;;;;;5004806;28;20048;-83
2022/08/11 11:32:20;;;;;;;0.30;0.30;;;30.90;77.20;;;;;;5023171;28;20853;-83
2022/08/11 11:34:52;;;;;;;0.30;0.30;;;30.70;76.30;;;;;;5043910;28;20595;-83
2022/08/11 11:37:18;;;;;;;0.20;0.20;;;31.30;76.90;;;;;;5045375;28;20098;-82
2022/08/11 11:39:45;;;;;;;0.30;0.30;;;31.60;75.70;;;;;;5045676;28;20127;-82
2022/08/11 11:42:11;;;;;;;0.40;0.40;;;31.70;76.20;;;;;;5041862;28;20343;-81
2022/08/11 11:44:38;;;;;;;0.30;0.30;;;30.50;73.70;;;;;;5043709;28;20044;-83
2022/08/11 11:47:05;;;;;;;0.20;0.20;;;30.30;74.20;;;;;;5030289;28;20155;-83
2022/08/11 11:49:38;;;;;;;0.20;0.20;;;31.20;75.00;;;;;;5036373;28;20501;-83
2022/08/11 11:52:06;;;;;;;0.30;0.30;;;30.70;73.70;;;;;;5013695;28;20060;-80
2022/08/11 11:54:35;;;;;;;0.20;0.20;;;31.40;74.10;;;;;;5014586;28;20659;-82
2022/08/11 12:02:36;;;;;;;0.30;0.30;;;31.30;72.40;;;;;;5034793;28;20058;-83
2022/08/11 12:05:04;;;;;;;0.20;0.20;;;31.60;71.80;;;;;;5019718;28;20068;-84
2022/08/11 12:10:16;;;;;;;0.20;0.20;;;31.90;74.50;;;;;;5019101;28;20681;-82
2022/08/11 12:15:28;;;;;;;0.20;0.20;;;31.60;71.30;;;;;;5022358;28;20506;-82
2022/08/11 12:17:55;;;;;;;0.20;0.20;;;30.90;71.10;;;;;;5017080;28;20048;-83
2022/08/11 12:20:21;;;;;;;0.20;0.20;;;31.30;72.70;;;;;;5018931;28;20063;-82
2022/08/11 12:28:23;;;;;;;0.28;0.28;;;31.50;70.40;;;;;;5023080;28;20075;-83
2022/08/11 12:30:51;;;;;;;0.30;0.30;;;31.10;68.40;;;;;;5009748;28;20087;-82
2022/08/11 12:33:19;;;;;;;0.25;0.25;;;30.70;69.50;;;;;;5022076;28;20044;-83
2022/08/11 12:35:47;;;;;;;0.20;0.20;;;31.40;71.70;;;;;;5019573;28;20051;-82
2022/08/11 12:38:15;;;;;;;0.20;0.20;;;31.50;71.40;;;;;;5024291;28;20163;-83
2022/08/11 12:46:28;;;;;;;0.20;0.20;;;31.50;69.10;;;;;;5017213;28;20095;-83
2022/08/11 12:51:58;;;;;;;0.22;0.22;;;31.90;69.60;;;;;;5013209;28;20049;-83
2022/08/11 12:54:30;;;;;;;0.22;0.22;;;30.90;64.70;;;;;;5004941;28;20107;-83
2022/08/11 13:05:58;;;;;;;0.28;0.28;;;31.40;64.60;;;;;;4999480;28;20138;-82
2022/08/11 13:08:26;;;;;;;0.20;0.20;;;32.00;67.70;;;;;;5002518;28;20167;-81
2022/08/11 13:13:42;;;;;;;0.30;0.30;;;31.70;63.80;;;;;;5019986;28;20052;-81
2022/08/11 13:16:09;;;;;;;0.20;0.20;;;31.70;67.40;;;;;;5019543;28;20716;-81
2022/08/11 13:18:38;;;;;;;0.20;0.20;;;31.70;66.00;;;;;;5000232;28;20044;-81
2022/08/11 13:21:04;;;;;;;0.20;0.20;;;31.40;65.00;;;;;;5020090;28;20052;-83
2022/08/11 13:23:30;;;;;;;0.20;0.20;;;30.90;65.30;;;;;;5021992;28;20037;-83
2022/08/11 13:25:56;;;;;;;0.30;0.30;;;31.30;67.20;;;;;;5019210;28;20048;-83
2022/08/11 13:28:23;;;;;;;0.20;0.20;;;31.70;68.70;;;;;;5027979;28;20092;-82
2022/08/11 13:33:40;;;;;;;0.20;0.20;;;31.90;66.50;;;;;;5010611;28;20052;-83
2022/08/11 13:36:06;;;;;;;0.20;0.20;;;32.20;68.30;;;;;;5034838;28;20413;-81
2022/08/11 13:38:33;;;;;;;0.25;0.25;;;32.10;66.50;;;;;;5030587;28;20098;-80
2022/08/11 13:41:00;;;;;;;0.20;0.20;;;31.30;63.70;;;;;;5014421;28;20044;-84
2022/08/11 13:43:27;;;;;;;0.20;0.20;;;31.40;64.40;;;;;;5016958;28;20044;-81
2022/08/11 13:46:17;;;;;;;0.20;0.20;;;31.50;66.30;;;;;;5029507;28;20052;-82
2022/08/11 13:48:41;;;;;;;0.20;0.20;;;31.90;68.60;;;;;;5014637;28;20061;-82
2022/08/11 13:53:54;;;;;;;0.20;0.20;;;32.50;67.20;;;;;;5033474;28;20067;-83
2022/08/11 13:56:23;;;;;;;0.20;0.20;;;31.80;64.30;;;;;;5033188;28;20363;-82
2022/08/11 13:58:51;;;;;;;0.20;0.20;;;31.70;64.80;;;;;;5013760;28;20592;-81
2022/08/11 14:01:18;;;;;;;0.20;0.20;;;31.40;62.80;;;;;;5032876;28;20063;-82
2022/08/11 14:03:47;;;;;;;0.20;0.20;;;30.90;63.10;;;;;;5030002;28;20456;-81
2022/08/11 14:06:16;;;;;;;0.28;0.28;;;30.80;62.70;;;;;;5029057;28;22747;-82
2022/08/11 14:08:43;;;;;;;0.20;0.20;;;31.10;64.60;;;;;;5016019;28;20711;-81
2022/08/11 14:13:57;;;;;;;0.20;0.20;;;31.40;64.60;;;;;;5030537;28;20579;-83
2022/08/11 14:16:30;;;;;;;0.20;0.20;;;31.60;65.60;;;;;;5028879;28;20143;-81
2022/08/11 14:19:04;;;;;;;0.20;0.20;;;30.60;62.90;;;;;;5030618;28;20044;-82
2022/08/11 14:24:21;;;;;;;0.20;0.20;;;31.50;66.40;;;;;;5032818;28;20064;-83
2022/08/11 14:26:50;;;;;;;0.20;0.20;;;31.70;66.40;;;;;;5036083;28;20652;-82
2022/08/11 14:29:20;;;;;;;0.20;0.20;;;31.80;66.70;;;;;;5030658;28;20052;-84
2022/08/11 14:31:55;;;;;;;0.20;0.20;;;31.80;66.40;;;;;;5029142;28;20548;-84
2022/08/11 14:34:23;;;;;;;0.30;0.30;;;31.20;62.50;;;;;;5013233;28;20951;-83
2022/08/11 14:36:57;;;;;;;0.20;0.20;;;31.40;65.00;;;;;;5031946;28;20155;-82
2022/08/11 14:39:28;;;;;;;0.28;0.28;;;31.70;65.50;;;;;;5011057;28;20197;-83
2022/08/11 14:47:34;;;;;;;0.30;0.30;;;31.00;65.20;;;;;;5033911;28;20048;-84
2022/08/11 14:50:02;;;;;;;0.20;0.20;;;31.20;63.70;;;;;;5037369;28;20049;-83
2022/08/11 14:52:31;;;;;;;0.20;0.20;;;30.90;63.80;;;;;;5034082;28;20506;-82
2022/08/11 14:57:42;;;;;;;0.30;0.30;;;30.90;63.00;;;;;;5036013;28;20052;-83
2022/08/11 15:00:17;;;;;;;0.20;0.20;;;31.00;64.60;;;;;;5016568;28;20056;-83
2022/08/11 15:05:30;;;;;;;0.20;0.20;;;30.80;64.10;;;;;;5029162;28;20055;-82
2022/08/11 15:07:57;;;;;;;0.20;0.20;;;30.90;63.30;;;;;;5018717;28;20053;-82
2022/08/11 15:10:24;;;;;;;0.20;0.20;;;30.70;64.30;;;;;;5038373;28;20123;-87
2022/08/11 15:12:51;;;;;;;0.30;0.30;;;31.00;64.30;;;;;;5001679;28;20045;-83
2022/08/11 15:18:05;;;;;;;0.30;0.30;;;30.90;63.30;;;;;;5033684;28;20534;-83
2022/08/11 15:26:15;;;;;;;0.20;0.20;;;30.60;63.40;;;;;;5017799;28;20480;-82
2022/08/11 15:45:53;;;;;;;0.22;0.22;;;30.40;61.90;;;;;;5045166;28;20061;-82
2022/08/11 15:48:27;;;;;;;0.20;0.20;;;30.60;63.70;;;;;;5041213;28;20056;-84
2022/08/11 15:50:56;;;;;;;0.20;0.20;;;30.40;61.30;;;;;;5039996;28;20463;-83
2022/08/11 15:53:39;;;;;;;0.20;0.20;;;30.20;61.70;;;;;;5020596;28;20065;-82
2022/08/11 15:56:06;;;;;;;0.20;0.20;;;30.30;62.60;;;;;;5017877;28;20175;-82
2022/08/11 16:04:23;;;;;;;0.20;0.20;;;30.40;63.30;;;;;;5019962;28;20068;-83
2022/08/11 16:06:55;;;;;;;0.20;0.20;;;30.50;65.50;;;;;;5023473;28;20821;-83
2022/08/11 16:09:46;;;;;;;0.30;0.30;;;30.40;63.40;;;;;;5023010;28;20076;-83
2022/08/11 16:12:15;;;;;;;0.20;0.20;;;30.30;63.30;;;;;;5022720;28;20044;-82
2022/08/11 16:17:39;;;;;;;0.30;0.30;;;30.20;65.40;;;;;;5023437;28;20139;-83
2022/08/11 16:20:07;;;;;;;0.20;0.20;;;30.00;62.90;;;;;;5020804;28;20064;-82
2022/08/11 16:22:40;;;;;;;0.20;0.20;;;30.00;64.70;;;;;;5025772;28;20433;-82
2022/08/11 16:25:09;;;;;;;0.25;0.25;;;29.90;63.10;;;;;;5038095;28;20072;-83
2022/08/11 16:27:42;;;;;;;0.20;0.20;;;30.00;63.80;;;;;;5023406;28;20597;-82
2022/08/11 16:30:09;;;;;;;0.20;0.20;;;29.90;64.70;;;;;;5022236;28;20446;-82
2022/08/11 16:32:39;;;;;;;0.22;0.22;;;29.90;62.60;;;;;;5023582;28;20087;-83
2022/08/11 16:40:43;;;;;;;0.20;0.20;;;29.70;62.00;;;;;;5022055;28;20056;-83
2022/08/11 16:48:48;;;;;;;0.20;0.20;;;29.60;64.40;;;;;;5024723;28;20045;-81
2022/08/11 16:51:14;;;;;;;0.20;0.20;;;29.50;64.00;;;;;;5028480;28;20048;-81
2022/08/11 16:53:43;;;;;;;0.25;0.25;;;29.50;62.30;;;;;;5031965;28;20084;-84
2022/08/11 16:56:15;;;;;;;0.20;0.20;;;29.40;63.70;;;;;;5028886;28;20505;-81
2022/08/11 17:01:27;;;;;;;0.20;0.20;;;29.30;64.10;;;;;;5044923;28;20071;-83
2022/08/11 17:18:03;;;;;;;0.25;0.25;;;29.10;64.00;;;;;;5038538;28;20365;-84
2022/08/11 17:20:31;;;;;;;0.30;0.30;;;28.90;66.70;;;;;;5026089;28;20110;-83
2022/08/11 17:25:44;;;;;;;0.20;0.20;;;28.80;65.80;;;;;;5026065;28;20869;-82
2022/08/11 17:28:12;;;;;;;0.30;0.30;;;28.70;69.80;;;;;;5026475;28;20334;-83
2022/08/11 17:36:11;;;;;;;0.20;0.20;;;28.20;71.50;;;;;;5009338;28;20057;-84
2022/08/11 17:38:38;;;;;;;0.30;0.30;;;28.10;71.50;;;;;;5020534;28;21180;-83
2022/08/11 17:49:25;;;;;;;0.25;0.25;;;27.70;75.70;;;;;;5023665;28;20060;-83
2022/08/11 18:00:11;;;;;;;0.20;0.20;;;27.40;76.70;;;;;;5027353;28;20067;-83
2022/08/11 18:05:27;;;;;;;0.20;0.20;;;27.20;77.30;;;;;;5037103;28;20063;-82
